createdAt,value
2022-09-16T00:00:32.909Z,50.902405
2022-09-16T00:01:32.915Z,50.902405
2022-09-16T00:02:35.784Z,50.902405
2022-09-16T00:03:33.876Z,50.902382
2022-09-16T00:04:32.863Z,50.902386
2022-09-16T00:05:32.873Z,50.902378
2022-09-16T00:06:32.870Z,50.902390
2022-09-16T00:07:32.851Z,50.902401
2022-09-16T00:08:32.834Z,50.902397
2022-09-16T00:09:32.827Z,50.902386
2022-09-16T00:10:32.838Z,50.902378
2022-09-16T00:11:32.862Z,50.902378
2022-09-16T00:12:32.803Z,50.902386
2022-09-16T00:13:32.802Z,50.902409
2022-09-16T00:14:32.818Z,50.902401
2022-09-16T00:15:32.817Z,50.902542
2022-09-16T00:16:32.898Z,50.902454
2022-09-16T00:17:32.771Z,50.902370
2022-09-16T00:18:32.761Z,50.902344
2022-09-16T00:19:32.796Z,50.902344
2022-09-16T00:20:32.780Z,50.902313
2022-09-16T00:21:32.777Z,50.902290
2022-09-16T00:22:32.724Z,50.902370
2022-09-16T00:23:32.723Z,50.902431
2022-09-16T00:24:32.717Z,50.902359
2022-09-16T00:25:32.707Z,50.902382
2022-09-16T00:26:32.704Z,50.902409
2022-09-16T00:27:32.725Z,50.902428
2022-09-16T00:28:32.702Z,50.902431
2022-09-16T00:29:32.670Z,50.902431
2022-09-16T00:30:32.669Z,50.902431
2022-09-16T00:31:32.703Z,50.902489
2022-09-16T00:32:32.687Z,50.902573
2022-09-16T00:33:32.692Z,50.902565
2022-09-16T00:34:32.638Z,50.902500
2022-09-16T00:35:32.643Z,50.902420
2022-09-16T00:36:32.630Z,50.902470
2022-09-16T00:37:32.665Z,50.902401
2022-09-16T00:38:32.637Z,50.902481
2022-09-16T00:39:32.604Z,50.902420
2022-09-16T00:40:32.631Z,50.902428
2022-09-16T00:41:32.599Z,50.902447
2022-09-16T00:42:32.609Z,50.902397
2022-09-16T00:43:32.575Z,50.902390
2022-09-16T00:44:32.575Z,50.902420
2022-09-16T00:45:32.559Z,50.902416
2022-09-16T00:46:32.603Z,50.902435
2022-09-16T00:47:32.574Z,50.902512
2022-09-16T00:48:32.535Z,50.902439
2022-09-16T00:49:32.524Z,50.902416
2022-09-16T00:50:32.521Z,50.902416
2022-09-16T00:51:32.511Z,50.902424
2022-09-16T00:52:32.534Z,50.902428
2022-09-16T00:53:32.499Z,50.902416
2022-09-16T00:54:32.503Z,50.902412
2022-09-16T00:55:32.478Z,50.902431
2022-09-16T00:56:32.471Z,50.902405
2022-09-16T00:57:32.494Z,50.902401
2022-09-16T00:58:32.470Z,50.902370
2022-09-16T00:59:32.456Z,50.902378
2022-09-16T01:00:32.505Z,50.902348
2022-09-16T01:01:32.613Z,50.902416
2022-09-16T01:02:32.478Z,50.902470
2022-09-16T01:03:32.423Z,50.902390
2022-09-16T01:04:32.414Z,50.902420
2022-09-16T01:05:32.416Z,50.902405
2022-09-16T01:06:32.402Z,50.902416
2022-09-16T01:07:32.421Z,50.902424
2022-09-16T01:08:32.377Z,50.902409
2022-09-16T01:09:32.377Z,50.902431
2022-09-16T01:10:32.390Z,50.902397
2022-09-16T01:11:32.368Z,50.902409
2022-09-16T01:12:32.373Z,50.902424
2022-09-16T01:13:33.348Z,50.902435
2022-09-16T01:14:32.336Z,50.902412
2022-09-16T01:15:32.331Z,50.902412
2022-09-16T01:16:32.388Z,50.902412
2022-09-16T01:17:32.345Z,50.902405
2022-09-16T01:18:32.301Z,50.902412
2022-09-16T01:19:32.295Z,50.902390
2022-09-16T01:20:32.288Z,50.902412
2022-09-16T01:21:32.279Z,50.902397
2022-09-16T01:22:32.313Z,50.902382
2022-09-16T01:23:32.259Z,50.902416
2022-09-16T01:24:32.254Z,50.902393
2022-09-16T01:25:32.243Z,50.902420
2022-09-16T01:26:32.245Z,50.902401
2022-09-16T01:27:32.231Z,50.902454
2022-09-16T01:28:32.249Z,50.902435
2022-09-16T01:29:32.216Z,50.902409
2022-09-16T01:30:32.204Z,50.902439
2022-09-16T01:31:32.251Z,50.902443
2022-09-16T01:32:32.200Z,50.902428
2022-09-16T01:33:32.244Z,50.902431
2022-09-16T01:34:32.172Z,50.902416
2022-09-16T01:35:32.167Z,50.902405
2022-09-16T01:36:32.163Z,50.902420
2022-09-16T01:37:32.158Z,50.902378
2022-09-16T01:38:32.191Z,50.902397
2022-09-16T01:39:32.137Z,50.902412
2022-09-16T01:40:32.172Z,50.902424
2022-09-16T01:41:32.142Z,50.902393
2022-09-16T01:42:32.117Z,50.902405
2022-09-16T01:43:32.162Z,50.902431
2022-09-16T01:44:32.113Z,50.902435
2022-09-16T01:45:32.100Z,50.902451
2022-09-16T01:46:32.118Z,50.902435
2022-09-16T01:47:32.080Z,50.902435
2022-09-16T01:48:33.095Z,50.902435
2022-09-16T01:49:32.065Z,50.902397
2022-09-16T01:50:32.064Z,50.902416
2022-09-16T01:51:32.051Z,50.902401
2022-09-16T01:52:32.052Z,50.902439
2022-09-16T01:53:32.059Z,50.902412
2022-09-16T01:54:32.035Z,50.902386
2022-09-16T01:55:32.020Z,50.902344
2022-09-16T01:56:32.019Z,50.902374
2022-09-16T01:57:32.008Z,50.902397
2022-09-16T01:58:32.024Z,50.902390
2022-09-16T01:59:31.992Z,50.902447
2022-09-16T02:00:32.004Z,50.902420
2022-09-16T02:01:31.993Z,50.902428
2022-09-16T02:02:32.049Z,50.902386
2022-09-16T02:03:31.989Z,50.902428
2022-09-16T02:04:31.968Z,50.902416
2022-09-16T02:05:31.966Z,50.902424
2022-09-16T02:06:31.938Z,50.902428
2022-09-16T02:07:31.936Z,50.902431
2022-09-16T02:08:31.967Z,50.902424
2022-09-16T02:09:31.920Z,50.902409
2022-09-16T02:10:31.911Z,50.902401
2022-09-16T02:11:31.898Z,50.902416
2022-09-16T02:12:31.916Z,50.902401
2022-09-16T02:13:31.908Z,50.902397
2022-09-16T02:14:31.872Z,50.902420
2022-09-16T02:15:31.874Z,50.902382
2022-09-16T02:16:31.869Z,50.902428
2022-09-16T02:17:31.850Z,50.902405
2022-09-16T02:18:31.871Z,50.902412
2022-09-16T02:19:31.869Z,50.902390
2022-09-16T02:20:31.830Z,50.902431
2022-09-16T02:21:31.826Z,50.902382
2022-09-16T02:22:31.835Z,50.902409
2022-09-16T02:23:31.830Z,50.902397
2022-09-16T02:24:31.796Z,50.902374
2022-09-16T02:25:31.783Z,50.902359
2022-09-16T02:26:31.779Z,50.902374
2022-09-16T02:27:31.804Z,50.902382
2022-09-16T02:28:31.808Z,50.902370
2022-09-16T02:29:31.803Z,50.902344
2022-09-16T02:30:31.756Z,50.902374
2022-09-16T02:31:31.773Z,50.902393
2022-09-16T02:32:31.730Z,50.902374
2022-09-16T02:33:31.781Z,50.902363
2022-09-16T02:34:31.722Z,50.902344
2022-09-16T02:35:31.710Z,50.902340
2022-09-16T02:36:31.710Z,50.902367
2022-09-16T02:37:31.700Z,50.902355
2022-09-16T02:38:31.716Z,50.902351
2022-09-16T02:39:31.681Z,50.902359
2022-09-16T02:40:31.718Z,50.902355
2022-09-16T02:41:31.672Z,50.902351
2022-09-16T02:42:31.670Z,50.902340
2022-09-16T02:43:31.660Z,50.902355
2022-09-16T02:44:31.682Z,50.902367
2022-09-16T02:45:31.642Z,50.902359
2022-09-16T02:46:31.747Z,50.902367
2022-09-16T02:47:31.624Z,50.902370
2022-09-16T02:48:31.640Z,50.902344
2022-09-16T02:49:31.608Z,50.902332
2022-09-16T02:50:31.626Z,50.902359
2022-09-16T02:51:31.608Z,50.902351
2022-09-16T02:52:31.568Z,50.902351
2022-09-16T02:53:32.636Z,50.902374
2022-09-16T02:54:31.574Z,50.902367
2022-09-16T02:55:31.567Z,50.902332
2022-09-16T02:56:31.588Z,50.902348
2022-09-16T02:57:31.562Z,50.902332
2022-09-16T02:58:31.541Z,50.902298
2022-09-16T02:59:31.585Z,50.902325
2022-09-16T03:00:31.539Z,50.902336
2022-09-16T03:01:31.568Z,50.902374
2022-09-16T03:02:31.562Z,50.902348
2022-09-16T03:03:31.510Z,50.902317
2022-09-16T03:04:31.518Z,50.902317
2022-09-16T03:05:31.493Z,50.902332
2022-09-16T03:06:31.482Z,50.902321
2022-09-16T03:07:31.485Z,50.902309
2022-09-16T03:08:31.456Z,50.902351
2022-09-16T03:09:31.477Z,50.902351
2022-09-16T03:10:31.439Z,50.902317
2022-09-16T03:11:31.443Z,50.902328
2022-09-16T03:12:31.435Z,50.902355
2022-09-16T03:13:31.423Z,50.902378
2022-09-16T03:14:31.553Z,50.902332
2022-09-16T03:15:31.410Z,50.902348
2022-09-16T03:16:31.400Z,50.902382
2022-09-16T03:17:31.399Z,50.902409
2022-09-16T03:18:31.384Z,50.902386
2022-09-16T03:19:31.405Z,50.902386
2022-09-16T03:20:31.366Z,50.902390
2022-09-16T03:21:31.404Z,50.902390
2022-09-16T03:22:31.355Z,50.902412
2022-09-16T03:23:31.337Z,50.902370
2022-09-16T03:24:31.385Z,50.902367
2022-09-16T03:25:31.337Z,50.902390
2022-09-16T03:26:31.346Z,50.902363
2022-09-16T03:27:31.332Z,50.902340
2022-09-16T03:28:31.308Z,50.902355
2022-09-16T03:29:31.343Z,50.902374
2022-09-16T03:30:31.293Z,50.902390
2022-09-16T03:31:31.310Z,50.902363
2022-09-16T03:32:31.275Z,50.902328
2022-09-16T03:33:31.267Z,50.902332
2022-09-16T03:34:31.285Z,50.902382
2022-09-16T03:35:31.276Z,50.902370
2022-09-16T03:36:31.291Z,50.902340
2022-09-16T03:37:31.246Z,50.902351
2022-09-16T03:38:31.243Z,50.902382
2022-09-16T03:39:31.226Z,50.902378
2022-09-16T03:40:31.291Z,50.902363
2022-09-16T03:41:31.218Z,50.902378
2022-09-16T03:42:31.200Z,50.902374
2022-09-16T03:43:31.193Z,50.902374
2022-09-16T03:44:31.185Z,50.902390
2022-09-16T03:45:31.205Z,50.902409
2022-09-16T03:46:31.251Z,50.902397
2022-09-16T03:47:31.164Z,50.902370
2022-09-16T03:48:31.166Z,50.902378
2022-09-16T03:49:31.190Z,50.902348
2022-09-16T03:50:31.187Z,50.902378
2022-09-16T03:51:31.137Z,50.902374
2022-09-16T03:52:31.128Z,50.902367
2022-09-16T03:53:31.123Z,50.902401
2022-09-16T03:54:31.105Z,50.902412
2022-09-16T03:55:31.133Z,50.902393
2022-09-16T03:56:31.111Z,50.902393
2022-09-16T03:57:31.085Z,50.902370
2022-09-16T03:58:31.082Z,50.902386
2022-09-16T03:59:31.072Z,50.902428
2022-09-16T04:00:31.091Z,50.902416
2022-09-16T04:01:31.111Z,50.902382
2022-09-16T04:02:31.137Z,50.902397
2022-09-16T04:03:33.302Z,50.902386
2022-09-16T04:04:32.036Z,50.902420
2022-09-16T04:05:31.049Z,50.902420
2022-09-16T04:06:31.026Z,50.902409
2022-09-16T04:07:31.010Z,50.902397
2022-09-16T04:08:31.001Z,50.902401
2022-09-16T04:09:31.006Z,50.902393
2022-09-16T04:10:31.016Z,50.902424
2022-09-16T04:11:30.980Z,50.902412
2022-09-16T04:12:30.973Z,50.902393
2022-09-16T04:13:30.975Z,50.902401
2022-09-16T04:14:30.988Z,50.902390
2022-09-16T04:15:30.986Z,50.902393
2022-09-16T04:16:30.953Z,50.902401
2022-09-16T04:17:30.960Z,50.902382
2022-09-16T04:18:30.935Z,50.902390
2022-09-16T04:19:30.927Z,50.902412
2022-09-16T04:20:30.945Z,50.902397
2022-09-16T04:21:30.912Z,50.902405
2022-09-16T04:22:30.897Z,50.902416
2022-09-16T04:23:30.896Z,50.902409
2022-09-16T04:24:30.893Z,50.902405
2022-09-16T04:25:30.908Z,50.902405
2022-09-16T04:26:30.865Z,50.902416
2022-09-16T04:27:30.870Z,50.902378
2022-09-16T04:28:30.871Z,50.902397
2022-09-16T04:29:30.843Z,50.902382
2022-09-16T04:30:30.909Z,50.902378
2022-09-16T04:31:30.834Z,50.902386
2022-09-16T04:32:30.823Z,50.902378
2022-09-16T04:33:30.831Z,50.902382
2022-09-16T04:34:30.813Z,50.902401
2022-09-16T04:35:30.837Z,50.902420
2022-09-16T04:36:30.824Z,50.902397
2022-09-16T04:37:30.811Z,50.902397
2022-09-16T04:38:30.779Z,50.902386
2022-09-16T04:39:30.802Z,50.902393
2022-09-16T04:40:30.817Z,50.902390
2022-09-16T04:41:30.808Z,50.902382
2022-09-16T04:42:30.765Z,50.902386
2022-09-16T04:43:30.773Z,50.902435
2022-09-16T04:44:30.751Z,50.902424
2022-09-16T04:45:30.745Z,50.902401
2022-09-16T04:46:30.872Z,50.902424
2022-09-16T04:47:30.712Z,50.902435
2022-09-16T04:48:30.715Z,50.902424
2022-09-16T04:49:30.695Z,50.902420
2022-09-16T04:50:30.693Z,50.902428
2022-09-16T04:51:30.715Z,50.902439
2022-09-16T04:52:30.701Z,50.902454
2022-09-16T04:53:30.676Z,50.902447
2022-09-16T04:54:30.658Z,50.902447
2022-09-16T04:55:30.659Z,50.902443
2022-09-16T04:56:30.669Z,50.902466
2022-09-16T04:57:30.637Z,50.902409
2022-09-16T04:58:30.635Z,50.902409
2022-09-16T04:59:30.626Z,50.902393
2022-09-16T05:00:30.638Z,50.902416
2022-09-16T05:01:30.697Z,50.902424
2022-09-16T05:02:30.604Z,50.902401
2022-09-16T05:03:30.648Z,50.902424
2022-09-16T05:04:30.579Z,50.902447
2022-09-16T05:05:30.582Z,50.902443
2022-09-16T05:06:30.607Z,50.902439
2022-09-16T05:07:30.568Z,50.902443
2022-09-16T05:08:30.564Z,50.902439
2022-09-16T05:09:30.561Z,50.902447
2022-09-16T05:10:30.546Z,50.902454
2022-09-16T05:11:30.577Z,50.902454
2022-09-16T05:12:30.532Z,50.902458
2022-09-16T05:13:30.517Z,50.902458
2022-09-16T05:14:30.518Z,50.902466
2022-09-16T05:15:30.520Z,50.902443
2022-09-16T05:16:30.540Z,50.902443
2022-09-16T05:17:50.017Z,50.902462
2022-09-16T05:18:32.500Z,50.902401
2022-09-16T05:19:30.486Z,50.902416
2022-09-16T05:20:30.456Z,50.902424
2022-09-16T05:21:30.483Z,50.902470
2022-09-16T05:22:30.439Z,50.902428
2022-09-16T05:23:30.432Z,50.902458
2022-09-16T05:24:30.454Z,50.902428
2022-09-16T05:25:30.444Z,50.902428
2022-09-16T05:26:30.504Z,50.902412
2022-09-16T05:27:30.398Z,50.902393
2022-09-16T05:28:30.391Z,50.902462
2022-09-16T05:29:30.379Z,50.902458
2022-09-16T05:30:30.398Z,50.902496
2022-09-16T05:31:30.423Z,50.902489
2022-09-16T05:32:30.366Z,50.902477
2022-09-16T05:33:30.357Z,50.902470
2022-09-16T05:34:30.340Z,50.902435
2022-09-16T05:35:30.339Z,50.902397
2022-09-16T05:36:30.362Z,50.902435
2022-09-16T05:37:30.343Z,50.902435
2022-09-16T05:38:30.317Z,50.902412
2022-09-16T05:39:30.495Z,50.902420
2022-09-16T05:40:30.349Z,50.902451
2022-09-16T05:41:30.330Z,50.902462
2022-09-16T05:42:30.362Z,50.902466
2022-09-16T05:43:30.277Z,50.902451
2022-09-16T05:44:30.282Z,50.902485
2022-09-16T05:45:32.580Z,50.902473
2022-09-16T05:46:31.338Z,50.902451
2022-09-16T05:47:30.251Z,50.902466
2022-09-16T05:48:30.244Z,50.902515
2022-09-16T05:49:30.249Z,50.902512
2022-09-16T05:50:30.232Z,50.902493
2022-09-16T05:51:30.269Z,50.902470
2022-09-16T05:52:30.216Z,50.902473
2022-09-16T05:53:30.204Z,50.902443
2022-09-16T05:54:30.201Z,50.902428
2022-09-16T05:55:30.183Z,50.902412
2022-09-16T05:56:30.201Z,50.902424
2022-09-16T05:57:30.193Z,50.902435
2022-09-16T05:58:30.239Z,50.902454
2022-09-16T05:59:30.160Z,50.902458
2022-09-16T06:00:30.268Z,50.902473
2022-09-16T06:01:30.194Z,50.902454
2022-09-16T06:02:30.191Z,50.902435
2022-09-16T06:03:30.123Z,50.902451
2022-09-16T06:04:30.122Z,50.902454
2022-09-16T06:05:30.132Z,50.902447
2022-09-16T06:06:30.114Z,50.902454
2022-09-16T06:07:30.126Z,50.902481
2022-09-16T06:08:30.098Z,50.902477
2022-09-16T06:09:30.083Z,50.902489
2022-09-16T06:10:30.086Z,50.902462
2022-09-16T06:11:30.110Z,50.902451
2022-09-16T06:12:30.086Z,50.902451
2022-09-16T06:13:30.055Z,50.902451
2022-09-16T06:14:30.120Z,50.902466
2022-09-16T06:15:30.081Z,50.902454
2022-09-16T06:16:30.044Z,50.902447
2022-09-16T06:17:30.049Z,50.902470
2022-09-16T06:18:30.029Z,50.902477
2022-09-16T06:19:30.052Z,50.902485
2022-09-16T06:20:30.004Z,50.902504
2022-09-16T06:21:30.020Z,50.902493
2022-09-16T06:22:30.013Z,50.902470
2022-09-16T06:23:30.000Z,50.902485
2022-09-16T06:24:29.974Z,50.902470
2022-09-16T06:25:29.972Z,50.902504
2022-09-16T06:26:29.989Z,50.902458
2022-09-16T06:27:29.953Z,50.902470
2022-09-16T06:28:29.969Z,50.902424
2022-09-16T06:29:29.952Z,50.902447
2022-09-16T06:30:31.220Z,50.902447
2022-09-16T06:31:30.946Z,50.902443
2022-09-16T06:32:29.923Z,50.902447
2022-09-16T06:33:29.900Z,50.902470
2022-09-16T06:34:29.924Z,50.902428
2022-09-16T06:35:29.889Z,50.902439
2022-09-16T06:36:29.909Z,50.902412
2022-09-16T06:37:29.892Z,50.902443
2022-09-16T06:38:29.896Z,50.902473
2022-09-16T06:39:29.861Z,50.902458
2022-09-16T06:40:29.883Z,50.902454
2022-09-16T06:41:29.889Z,50.902431
2022-09-16T06:42:29.848Z,50.902428
2022-09-16T06:43:29.834Z,50.902443
2022-09-16T06:44:29.828Z,50.902447
2022-09-16T06:45:29.858Z,50.902428
2022-09-16T06:46:29.957Z,50.902401
2022-09-16T06:47:29.797Z,50.902424
2022-09-16T06:48:29.787Z,50.902405
2022-09-16T06:49:29.830Z,50.902447
2022-09-16T06:50:29.823Z,50.902431
2022-09-16T06:51:30.424Z,50.902428
2022-09-16T06:52:29.824Z,50.902435
2022-09-16T06:53:29.754Z,50.902431
2022-09-16T06:54:29.748Z,50.902424
2022-09-16T06:55:29.744Z,50.902420
2022-09-16T06:56:29.804Z,50.902409
2022-09-16T06:57:29.815Z,50.902420
2022-09-16T06:58:29.709Z,50.902428
2022-09-16T06:59:30.473Z,50.902454
2022-09-16T07:00:29.694Z,50.902439
2022-09-16T07:01:29.774Z,50.902462
2022-09-16T07:02:29.804Z,50.902390
2022-09-16T07:03:29.673Z,50.902412
2022-09-16T07:04:29.662Z,50.902451
2022-09-16T07:05:29.657Z,50.902454
2022-09-16T07:07:31.753Z,50.902382
2022-09-16T07:08:29.640Z,50.902401
2022-09-16T07:09:29.624Z,50.902378
2022-09-16T07:10:29.617Z,50.902374
2022-09-16T07:11:29.642Z,50.902386
2022-09-16T07:12:29.596Z,50.902451
2022-09-16T07:13:29.592Z,50.902451
2022-09-16T07:14:29.586Z,50.902439
2022-09-16T07:15:30.516Z,50.902397
2022-09-16T07:16:29.661Z,50.902393
2022-09-16T07:17:29.558Z,50.902397
2022-09-16T07:18:29.637Z,50.902443
2022-09-16T07:19:29.558Z,50.902401
2022-09-16T07:20:29.545Z,50.902370
2022-09-16T07:21:29.612Z,50.902393
2022-09-16T07:22:29.547Z,50.902420
2022-09-16T07:23:29.614Z,50.902370
2022-09-16T07:24:29.503Z,50.902420
2022-09-16T07:25:33.684Z,50.902416
2022-09-16T07:26:31.569Z,50.902420
2022-09-16T07:27:29.488Z,50.902397
2022-09-16T07:28:29.472Z,50.902405
2022-09-16T07:29:29.479Z,50.902390
2022-09-16T07:30:29.499Z,50.902397
2022-09-16T07:31:30.490Z,50.902397
2022-09-16T07:32:29.469Z,50.902401
2022-09-16T07:33:29.460Z,50.902401
2022-09-16T07:34:29.501Z,50.902405
2022-09-16T07:35:29.427Z,50.902390
2022-09-16T07:36:29.432Z,50.902397
2022-09-16T07:37:29.456Z,50.902393
2022-09-16T07:38:29.402Z,50.902374
2022-09-16T07:39:29.388Z,50.902386
2022-09-16T07:40:29.923Z,50.902405
2022-09-16T07:41:30.393Z,50.902393
2022-09-16T07:42:29.412Z,50.902393
2022-09-16T07:43:29.357Z,50.902397
2022-09-16T07:44:29.351Z,50.902382
2022-09-16T07:45:29.377Z,50.902378
2022-09-16T07:46:29.352Z,50.902378
2022-09-16T07:47:29.373Z,50.902382
2022-09-16T07:48:34.432Z,50.902409
2022-09-16T07:49:31.323Z,50.902382
2022-09-16T07:50:29.403Z,50.902393
2022-09-16T07:51:29.315Z,50.902401
2022-09-16T07:52:29.320Z,50.902397
2022-09-16T07:53:29.654Z,50.902393
2022-09-16T07:54:29.288Z,50.902390
2022-09-16T07:55:29.273Z,50.902348
2022-09-16T07:56:29.301Z,50.902336
2022-09-16T07:57:29.294Z,50.902390
2022-09-16T07:58:29.253Z,50.902367
2022-09-16T07:59:29.235Z,50.902378
2022-09-16T08:00:29.236Z,50.902351
2022-09-16T08:01:29.274Z,50.902359
2022-09-16T08:02:29.330Z,50.902340
2022-09-16T08:03:29.225Z,50.902374
2022-09-16T08:04:29.223Z,50.902367
2022-09-16T08:05:29.202Z,50.902378
2022-09-16T08:06:29.267Z,50.902412
2022-09-16T08:07:29.213Z,50.902424
2022-09-16T08:08:29.170Z,50.902409
2022-09-16T08:09:50.027Z,50.902416
2022-09-16T08:10:32.520Z,50.902412
2022-09-16T08:11:30.170Z,50.902405
2022-09-16T08:12:29.266Z,50.902412
2022-09-16T08:13:29.133Z,50.902405
2022-09-16T08:14:29.137Z,50.902397
2022-09-16T08:15:29.122Z,50.902393
2022-09-16T08:16:29.153Z,50.902378
2022-09-16T08:17:30.765Z,50.902386
2022-09-16T08:18:29.097Z,50.902393
2022-09-16T08:19:29.104Z,50.902374
2022-09-16T08:20:29.106Z,50.902382
2022-09-16T08:21:29.074Z,50.902367
2022-09-16T08:22:29.165Z,50.902374
2022-09-16T08:23:29.058Z,50.902390
2022-09-16T08:24:29.092Z,50.902378
2022-09-16T08:25:29.065Z,50.902382
2022-09-16T08:26:29.035Z,50.902393
2022-09-16T08:27:29.060Z,50.902409
2022-09-16T08:28:39.813Z,50.902397
2022-09-16T08:29:31.027Z,50.902393
2022-09-16T08:30:29.004Z,50.902351
2022-09-16T08:31:29.175Z,50.902370
2022-09-16T08:32:29.059Z,50.902367
2022-09-16T08:33:28.978Z,50.902367
2022-09-16T08:34:28.974Z,50.902397
2022-09-16T08:35:28.969Z,50.902439
2022-09-16T08:36:29.030Z,50.902390
2022-09-16T08:37:28.978Z,50.902386
2022-09-16T08:38:29.023Z,50.902367
2022-09-16T08:39:28.933Z,50.902401
2022-09-16T08:40:28.972Z,50.902363
2022-09-16T08:41:28.915Z,50.902363
2022-09-16T08:42:28.930Z,50.902401
2022-09-16T08:43:28.916Z,50.902390
2022-09-16T08:44:28.899Z,50.902359
2022-09-16T08:45:29.010Z,50.902386
2022-09-16T08:46:28.881Z,50.902340
2022-09-16T08:47:28.903Z,50.902401
2022-09-16T08:48:28.997Z,50.902390
2022-09-16T08:49:28.871Z,50.902386
2022-09-16T08:50:28.864Z,50.902359
2022-09-16T08:51:28.840Z,50.902332
2022-09-16T08:52:28.867Z,50.902348
2022-09-16T08:53:28.851Z,50.902367
2022-09-16T08:54:28.918Z,50.902386
2022-09-16T08:55:28.810Z,50.902386
2022-09-16T08:56:28.804Z,50.902393
2022-09-16T08:57:28.797Z,50.902409
2022-09-16T08:58:28.836Z,50.902321
2022-09-16T08:59:28.794Z,50.902336
2022-09-16T09:00:28.806Z,50.902348
2022-09-16T09:01:28.943Z,50.902378
2022-09-16T09:02:29.313Z,50.902382
2022-09-16T09:03:28.789Z,50.902382
2022-09-16T09:04:28.752Z,50.902344
2022-09-16T09:05:28.751Z,50.902344
2022-09-16T09:06:28.733Z,50.902359
2022-09-16T09:07:28.722Z,50.902378
2022-09-16T09:08:28.774Z,50.902382
2022-09-16T09:09:28.715Z,50.902344
2022-09-16T09:10:28.796Z,50.902359
2022-09-16T09:11:28.697Z,50.902370
2022-09-16T09:12:29.391Z,50.902386
2022-09-16T09:13:29.119Z,50.902405
2022-09-16T09:14:28.679Z,50.902409
2022-09-16T09:15:28.691Z,50.902363
2022-09-16T09:16:28.733Z,50.902344
2022-09-16T09:17:28.667Z,50.902363
2022-09-16T09:18:28.668Z,50.902317
2022-09-16T09:19:28.632Z,50.902328
2022-09-16T09:20:28.627Z,50.902370
2022-09-16T09:21:28.628Z,50.902344
2022-09-16T09:22:28.610Z,50.902340
2022-09-16T09:23:28.632Z,50.902378
2022-09-16T09:24:28.590Z,50.902374
2022-09-16T09:25:28.582Z,50.902363
2022-09-16T09:26:28.704Z,50.902348
2022-09-16T09:27:28.578Z,50.902378
2022-09-16T09:28:28.586Z,50.902386
2022-09-16T09:29:28.759Z,50.902390
2022-09-16T09:30:28.627Z,50.902397
2022-09-16T09:31:28.840Z,50.902374
2022-09-16T09:32:28.714Z,50.902405
2022-09-16T09:33:45.557Z,50.902386
2022-09-16T09:34:30.526Z,50.902367
2022-09-16T09:35:28.540Z,50.902363
2022-09-16T09:36:28.506Z,50.902332
2022-09-16T09:38:03.582Z,50.902382
2022-09-16T09:38:28.496Z,50.902363
2022-09-16T09:39:28.479Z,50.902378
2022-09-16T09:40:28.490Z,50.902348
2022-09-16T09:41:28.465Z,50.902348
2022-09-16T09:42:28.538Z,50.902405
2022-09-16T09:43:28.554Z,50.902393
2022-09-16T09:44:28.513Z,50.902386
2022-09-16T09:45:28.441Z,50.902412
2022-09-16T09:46:28.456Z,50.902367
2022-09-16T09:47:28.413Z,50.902344
2022-09-16T09:48:28.429Z,50.902367
2022-09-16T09:49:28.398Z,50.902405
2022-09-16T09:50:28.405Z,50.902370
2022-09-16T09:51:28.380Z,50.902351
2022-09-16T09:52:28.379Z,50.902370
2022-09-16T09:53:28.396Z,50.902386
2022-09-16T09:54:28.378Z,50.902367
2022-09-16T09:55:28.370Z,50.902367
2022-09-16T09:56:28.343Z,50.902401
2022-09-16T09:57:28.347Z,50.902435
2022-09-16T09:58:28.460Z,50.902420
2022-09-16T09:59:28.331Z,50.902397
2022-09-16T10:00:28.317Z,50.902386
2022-09-16T10:01:28.335Z,50.902412
2022-09-16T10:02:28.345Z,50.902412
2022-09-16T10:03:28.315Z,50.902401
2022-09-16T10:04:28.297Z,50.902393
2022-09-16T10:05:28.277Z,50.902370
2022-09-16T10:06:28.264Z,50.902370
2022-09-16T10:07:28.263Z,50.902401
2022-09-16T10:08:28.318Z,50.902386
2022-09-16T10:09:28.251Z,50.902382
2022-09-16T10:10:28.236Z,50.902412
2022-09-16T10:11:28.242Z,50.902416
2022-09-16T10:12:28.236Z,50.902431
2022-09-16T10:13:28.243Z,50.902428
2022-09-16T10:14:28.366Z,50.902416
2022-09-16T10:15:28.197Z,50.902428
2022-09-16T10:16:28.231Z,50.902416
2022-09-16T10:17:28.195Z,50.902397
2022-09-16T10:18:28.218Z,50.902405
2022-09-16T10:19:28.172Z,50.902397
2022-09-16T10:20:28.163Z,50.902435
2022-09-16T10:21:28.154Z,50.902451
2022-09-16T10:22:28.155Z,50.902462
2022-09-16T10:23:30.268Z,50.902447
2022-09-16T10:24:29.130Z,50.902401
2022-09-16T10:25:28.126Z,50.902386
2022-09-16T10:26:28.113Z,50.902401
2022-09-16T10:27:28.106Z,50.902416
2022-09-16T10:28:28.128Z,50.902340
2022-09-16T10:29:28.089Z,50.902374
2022-09-16T10:30:28.174Z,50.902382
2022-09-16T10:31:30.514Z,50.902416
2022-09-16T10:32:29.069Z,50.902416
2022-09-16T10:33:28.093Z,50.902454
2022-09-16T10:34:28.052Z,50.902420
2022-09-16T10:35:28.059Z,50.902420
2022-09-16T10:36:28.051Z,50.902435
2022-09-16T10:37:28.033Z,50.902443
2022-09-16T10:38:28.057Z,50.902435
2022-09-16T10:39:28.022Z,50.902416
2022-09-16T10:40:28.101Z,50.902473
2022-09-16T10:41:27.998Z,50.902473
2022-09-16T10:42:27.998Z,50.902454
2022-09-16T10:43:27.978Z,50.902439
2022-09-16T10:44:28.007Z,50.902409
2022-09-16T10:45:27.972Z,50.902424
2022-09-16T10:46:28.136Z,50.902416
2022-09-16T10:47:27.994Z,50.902451
2022-09-16T10:48:27.944Z,50.902431
2022-09-16T10:49:27.966Z,50.902431
2022-09-16T10:50:27.944Z,50.902451
2022-09-16T10:51:27.926Z,50.902443
2022-09-16T10:52:27.984Z,50.902451
2022-09-16T10:53:27.919Z,50.902424
2022-09-16T10:54:27.928Z,50.902454
2022-09-16T10:55:27.891Z,50.902435
2022-09-16T10:56:27.888Z,50.902439
2022-09-16T10:57:27.874Z,50.902431
2022-09-16T10:58:27.871Z,50.902454
2022-09-16T10:59:28.729Z,50.902439
2022-09-16T11:00:27.863Z,50.902443
2022-09-16T11:01:28.405Z,50.902454
2022-09-16T11:02:27.945Z,50.902447
2022-09-16T11:03:27.832Z,50.902431
2022-09-16T11:04:27.847Z,50.902420
2022-09-16T11:05:27.814Z,50.902412
2022-09-16T11:06:27.814Z,50.902447
2022-09-16T11:07:27.801Z,50.902428
2022-09-16T11:08:27.795Z,50.902420
2022-09-16T11:09:27.807Z,50.902439
2022-09-16T11:10:28.603Z,50.902443
2022-09-16T11:11:27.802Z,50.902424
2022-09-16T11:12:28.024Z,50.902454
2022-09-16T11:13:27.745Z,50.902412
2022-09-16T11:14:27.768Z,50.902443
2022-09-16T11:15:27.733Z,50.902424
2022-09-16T11:16:27.790Z,50.902424
2022-09-16T11:17:27.736Z,50.902412
2022-09-16T11:18:27.791Z,50.902401
2022-09-16T11:19:27.725Z,50.902405
2022-09-16T11:20:27.701Z,50.902386
2022-09-16T11:21:27.676Z,50.902390
2022-09-16T11:22:27.682Z,50.902420
2022-09-16T11:23:27.695Z,50.902397
2022-09-16T11:24:27.684Z,50.902428
2022-09-16T11:25:27.657Z,50.902409